createdAt,value
2019-01-12T00:00:35.891Z,30.90
2019-01-12T00:03:04.783Z,29.00
2019-01-12T00:05:33.279Z,25.13
2019-01-12T00:08:01.719Z,9.87
2019-01-12T00:10:30.211Z,28.07
2019-01-12T00:12:58.656Z,34.23
2019-01-12T00:15:27.077Z,31.87
2019-01-12T00:17:55.606Z,14.70
2019-01-12T00:20:24.094Z,15.57
2019-01-12T00:22:52.518Z,37.00
2019-01-12T00:25:20.967Z,26.10
2019-01-12T00:27:49.386Z,23.30
2019-01-12T00:30:17.901Z,34.07
2019-01-12T00:32:46.320Z,18.73
2019-01-12T00:35:14.888Z,31.03
2019-01-12T00:37:43.345Z,32.67
2019-01-12T00:40:11.970Z,34.47
2019-01-12T00:42:40.386Z,31.47
2019-01-12T00:45:13.665Z,31.70
2019-01-12T00:47:42.152Z,28.17
2019-01-12T00:50:13.445Z,13.70
2019-01-12T00:52:42.009Z,26.33
2019-01-12T00:55:10.520Z,28.00
2019-01-12T00:57:38.943Z,27.23
2019-01-12T01:00:10.560Z,44.13
2019-01-12T01:02:38.996Z,27.87
2019-01-12T01:05:08.274Z,31.50
2019-01-12T01:07:36.761Z,21.90
2019-01-12T01:10:11.310Z,34.17
2019-01-12T01:12:39.738Z,31.07
2019-01-12T01:15:10.217Z,25.40
2019-01-12T01:17:38.642Z,23.10
2019-01-12T01:20:09.637Z,17.20
2019-01-12T01:22:38.132Z,23.10
2019-01-12T01:25:08.718Z,39.93
2019-01-12T01:27:37.130Z,22.53
2019-01-12T01:30:14.443Z,27.73
2019-01-12T01:32:42.858Z,22.20
2019-01-12T01:35:11.542Z,20.67
2019-01-12T01:37:40.036Z,14.30
2019-01-12T01:40:11.397Z,15.97
2019-01-12T01:42:39.819Z,19.70
2019-01-12T01:45:10.443Z,20.57
2019-01-12T01:47:38.927Z,21.43
2019-01-12T01:50:09.598Z,24.87
2019-01-12T01:52:38.041Z,24.03
2019-01-12T01:55:07.214Z,18.70
2019-01-12T01:57:35.734Z,28.17
2019-01-12T02:00:06.846Z,15.87
2019-01-12T02:02:41.094Z,16.00
2019-01-12T02:05:09.747Z,19.87
2019-01-12T02:07:38.192Z,23.40
2019-01-12T02:10:09.787Z,11.50
2019-01-12T02:12:38.299Z,22.10
2019-01-12T02:15:09.867Z,17.97
2019-01-12T02:17:38.316Z,27.33
2019-01-12T02:20:07.681Z,17.90
2019-01-12T02:22:36.129Z,24.03
2019-01-12T02:25:06.698Z,11.90
2019-01-12T02:27:35.143Z,29.57
2019-01-12T02:30:05.978Z,24.53
2019-01-12T02:32:34.422Z,13.20
2019-01-12T02:35:02.843Z,21.37
2019-01-12T02:37:31.288Z,17.77
2019-01-12T02:39:59.711Z,29.43
2019-01-12T02:42:28.160Z,22.80
2019-01-12T02:44:56.576Z,21.00
2019-01-12T02:47:25.023Z,17.33
2019-01-12T02:49:53.448Z,25.10
2019-01-12T02:52:21.896Z,22.23
2019-01-12T02:54:50.326Z,22.23
2019-01-12T02:57:18.770Z,22.40
2019-01-12T02:59:47.195Z,24.00
2019-01-12T03:02:15.704Z,16.60
2019-01-12T03:04:44.121Z,9.10
2019-01-12T03:07:12.578Z,17.00
2019-01-12T03:09:42.570Z,22.47
2019-01-12T03:12:11.126Z,19.73
2019-01-12T03:14:39.546Z,22.87
2019-01-12T03:17:07.975Z,22.60
2019-01-12T03:19:36.429Z,25.40
2019-01-12T03:22:04.911Z,14.17
2019-01-12T03:24:33.361Z,15.40
2019-01-12T03:27:01.789Z,27.80
2019-01-12T03:29:30.231Z,18.87
2019-01-12T03:31:58.679Z,21.40
2019-01-12T03:34:27.275Z,12.67
2019-01-12T03:36:55.703Z,15.80
2019-01-12T03:39:24.155Z,19.00
2019-01-12T03:41:52.574Z,14.80
2019-01-12T03:44:21.016Z,20.03
2019-01-12T03:46:49.439Z,15.30
2019-01-12T03:49:17.959Z,23.33
2019-01-12T03:51:46.384Z,16.63
2019-01-12T03:54:14.824Z,18.40
2019-01-12T03:56:43.252Z,21.10
2019-01-12T03:59:11.703Z,11.33
2019-01-12T04:01:40.115Z,18.47
2019-01-12T04:04:08.635Z,28.63
2019-01-12T04:06:37.049Z,9.70
2019-01-12T04:09:07.534Z,12.03
2019-01-12T04:11:35.960Z,22.70
2019-01-12T04:14:04.948Z,18.20
2019-01-12T04:16:33.367Z,21.13
2019-01-12T04:19:01.815Z,14.27
2019-01-12T04:21:30.238Z,17.03
2019-01-12T04:23:58.685Z,11.60
2019-01-12T04:26:27.104Z,17.53
2019-01-12T04:28:55.553Z,16.33
2019-01-12T04:31:23.975Z,14.10
2019-01-12T04:33:52.430Z,17.50
2019-01-12T04:36:20.858Z,20.80
2019-01-12T04:38:49.336Z,18.43
2019-01-12T04:41:17.761Z,22.63
2019-01-12T04:43:46.185Z,24.37
2019-01-12T04:46:14.634Z,17.17
2019-01-12T04:48:43.059Z,20.80
2019-01-12T04:51:11.579Z,27.03
2019-01-12T04:53:40.004Z,17.60
2019-01-12T04:56:08.452Z,17.50
2019-01-12T04:58:36.881Z,17.40
2019-01-12T05:01:05.467Z,17.10
2019-01-12T05:03:33.902Z,23.83
2019-01-12T05:06:02.342Z,8.50
2019-01-12T05:08:30.765Z,16.80
2019-01-12T05:10:59.225Z,21.03
2019-01-12T05:13:27.697Z,28.90
2019-01-12T05:15:56.171Z,14.53
2019-01-12T05:18:24.695Z,19.23
2019-01-12T05:20:53.105Z,19.50
2019-01-12T05:23:21.525Z,19.67
2019-01-12T05:25:50.019Z,14.57
2019-01-12T05:28:18.439Z,17.53
2019-01-12T05:30:46.857Z,12.50
2019-01-12T05:33:15.385Z,12.43
2019-01-12T05:35:43.811Z,14.43
2019-01-12T05:38:12.263Z,13.63
2019-01-12T05:40:40.680Z,14.00
2019-01-12T05:43:09.134Z,13.83
2019-01-12T05:45:37.548Z,18.17
2019-01-12T05:48:06.070Z,19.80
2019-01-12T05:50:34.496Z,14.47
2019-01-12T05:53:02.946Z,27.00
2019-01-12T05:55:31.443Z,16.30
2019-01-12T05:57:59.891Z,20.37
2019-01-12T06:00:28.311Z,15.03
2019-01-12T06:02:56.827Z,15.37
2019-01-12T06:05:25.251Z,15.90
2019-01-12T06:07:53.696Z,15.30
2019-01-12T06:10:22.123Z,16.20
2019-01-12T06:12:50.573Z,11.63
2019-01-12T06:15:18.994Z,7.13
2019-01-12T06:17:47.487Z,16.50
2019-01-12T06:20:16.386Z,13.77
2019-01-12T06:22:44.863Z,16.00
2019-01-12T06:25:13.450Z,16.13
2019-01-12T06:27:41.870Z,11.40
2019-01-12T06:30:13.232Z,12.10
2019-01-12T06:32:41.729Z,13.00
2019-01-12T06:35:10.173Z,9.93
2019-01-12T06:37:38.601Z,10.17
2019-01-12T06:40:10.054Z,8.93
2019-01-12T06:42:38.481Z,6.30
2019-01-12T06:45:10.464Z,8.30
2019-01-12T06:47:38.893Z,10.13
2019-01-12T06:50:10.279Z,10.10
2019-01-12T06:52:38.777Z,10.40
2019-01-12T06:55:09.067Z,4.93
2019-01-12T06:57:37.560Z,12.33
2019-01-12T07:00:09.179Z,4.83
2019-01-12T07:02:37.664Z,6.90
2019-01-12T07:05:07.350Z,11.83
2019-01-12T07:07:35.772Z,6.20
2019-01-12T07:10:07.222Z,5.37
2019-01-12T07:12:35.636Z,3.73
2019-01-12T07:15:06.624Z,6.97
2019-01-12T07:17:35.038Z,9.23
2019-01-12T07:20:05.885Z,3.97
2019-01-12T07:22:34.298Z,8.03
2019-01-12T07:25:02.880Z,6.43
2019-01-12T07:27:31.294Z,6.83
2019-01-12T07:29:59.783Z,4.43
2019-01-12T07:32:28.229Z,3.23
2019-01-12T07:34:56.644Z,8.27
2019-01-12T07:37:25.090Z,4.90
2019-01-12T07:39:53.516Z,5.10
2019-01-12T07:42:22.170Z,4.23
2019-01-12T07:44:50.567Z,3.43
2019-01-12T07:47:19.019Z,7.67
2019-01-12T07:49:47.520Z,5.33
2019-01-12T07:52:15.965Z,7.90
2019-01-12T07:54:44.453Z,4.50
2019-01-12T07:57:12.906Z,5.53
2019-01-12T07:59:41.327Z,5.33
2019-01-12T08:02:09.839Z,7.03
2019-01-12T08:04:38.257Z,3.23
2019-01-12T08:07:06.771Z,6.60
2019-01-12T08:09:35.188Z,5.37
2019-01-12T08:12:03.872Z,7.40
2019-01-12T08:14:32.288Z,4.70
2019-01-12T08:17:00.732Z,5.73
2019-01-12T08:19:29.157Z,5.07
2019-01-12T08:21:57.595Z,3.87
2019-01-12T08:24:26.023Z,3.83
2019-01-12T08:26:54.525Z,3.30
2019-01-12T08:29:22.959Z,3.67
2019-01-12T08:31:51.372Z,2.70
2019-01-12T08:34:19.818Z,2.70
2019-01-12T08:36:48.244Z,4.33
2019-01-12T08:39:16.702Z,3.13
2019-01-12T08:41:45.120Z,10.30
2019-01-12T08:44:13.576Z,13.40
2019-01-12T08:46:41.999Z,8.17
2019-01-12T08:49:10.451Z,48.10
2019-01-12T08:51:38.869Z,3.40
2019-01-12T08:54:07.316Z,6.90
2019-01-12T08:56:38.460Z,5.97
2019-01-12T08:59:05.902Z,5.10
2019-01-12T09:01:34.314Z,4.47
2019-01-12T09:04:02.826Z,2.40
2019-01-12T09:06:31.258Z,4.63
2019-01-12T09:08:59.708Z,6.13
2019-01-12T09:11:28.194Z,4.87
2019-01-12T09:13:56.635Z,4.87
2019-01-12T09:16:25.054Z,5.00
2019-01-12T09:18:53.499Z,3.77
2019-01-12T09:21:21.923Z,2.83
2019-01-12T09:23:50.366Z,3.10
2019-01-12T09:26:18.858Z,2.00
2019-01-12T09:28:47.367Z,1.80
2019-01-12T09:31:15.777Z,3.70
2019-01-12T09:33:44.256Z,3.23
2019-01-12T09:36:12.679Z,1.70
2019-01-12T09:38:41.096Z,5.07
2019-01-12T09:41:09.614Z,1.77
2019-01-12T09:43:38.028Z,2.40
2019-01-12T09:46:06.612Z,2.13
2019-01-12T09:48:35.030Z,3.80
2019-01-12T09:51:03.470Z,3.97
2019-01-12T09:53:31.888Z,1.40
2019-01-12T09:56:00.330Z,1.90
2019-01-12T09:58:28.761Z,4.50
2019-01-12T10:00:57.211Z,2.77
2019-01-12T10:03:25.623Z,1.93
2019-01-12T10:05:55.271Z,4.20
2019-01-12T10:08:23.867Z,1.57
2019-01-12T10:10:52.314Z,4.93
2019-01-12T10:13:20.733Z,4.50
2019-01-12T10:15:49.176Z,3.33
2019-01-12T10:18:17.668Z,3.10
2019-01-12T10:20:46.122Z,3.90
2019-01-12T10:23:14.534Z,4.00
2019-01-12T10:25:42.981Z,3.10
2019-01-12T10:28:11.404Z,16.57
2019-01-12T10:30:39.858Z,12.03
2019-01-12T10:33:08.274Z,6.13
2019-01-12T10:35:36.718Z,17.97
2019-01-12T10:38:05.405Z,9.47
2019-01-12T10:40:33.859Z,6.90
2019-01-12T10:43:02.280Z,9.80
2019-01-12T10:45:30.701Z,15.90
2019-01-12T10:47:59.225Z,71.73
2019-01-12T10:50:29.811Z,10.57
2019-01-12T10:52:58.407Z,6.90
2019-01-12T10:55:26.956Z,70.23
2019-01-12T10:57:55.404Z,13.00
2019-01-12T11:00:26.635Z,14.10
2019-01-12T11:02:55.086Z,38.60
2019-01-12T11:05:23.644Z,11.70
2019-01-12T11:07:52.171Z,8.00
2019-01-12T11:10:20.766Z,22.60
2019-01-12T11:12:49.390Z,50.63
2019-01-12T11:15:20.126Z,44.10
2019-01-12T11:17:49.019Z,24.80
2019-01-12T11:20:17.697Z,25.50
2019-01-12T11:22:46.285Z,14.50
2019-01-12T11:25:15.852Z,11.70
2019-01-12T11:27:44.315Z,30.70
2019-01-12T11:30:15.271Z,5.80
2019-01-12T11:32:43.854Z,11.77
2019-01-12T11:35:12.816Z,5.10
2019-01-12T11:37:41.333Z,50.27
2019-01-12T11:40:15.554Z,52.43
2019-01-12T11:42:44.136Z,31.67
2019-01-12T11:45:12.722Z,33.30
2019-01-12T11:47:41.161Z,30.73
2019-01-12T11:50:15.371Z,14.40
2019-01-12T11:52:44.038Z,17.00
2019-01-12T11:55:13.816Z,10.80
2019-01-12T11:57:42.304Z,9.27
2019-01-12T12:00:22.659Z,9.00
2019-01-12T12:02:51.254Z,11.90
2019-01-12T12:05:19.781Z,5.13
2019-01-12T12:07:48.345Z,6.40
2019-01-12T12:10:17.539Z,5.63
2019-01-12T12:12:45.952Z,5.63
2019-01-12T12:15:19.615Z,4.13
2019-01-12T12:17:48.116Z,7.00
2019-01-12T12:20:19.469Z,5.33
2019-01-12T12:22:47.883Z,3.40
2019-01-12T12:25:16.325Z,3.77
2019-01-12T12:27:44.887Z,4.47
2019-01-12T12:30:16.509Z,4.20
2019-01-12T12:32:45.065Z,3.30
2019-01-12T12:35:13.508Z,4.07
2019-01-12T12:37:41.932Z,3.10
2019-01-12T12:40:13.486Z,3.47
2019-01-12T12:42:41.902Z,3.70
2019-01-12T12:45:13.656Z,5.53
2019-01-12T12:47:42.150Z,4.30
2019-01-12T12:50:13.231Z,4.50
2019-01-12T12:52:41.795Z,18.03
2019-01-12T12:55:11.889Z,5.33
2019-01-12T12:57:40.307Z,5.43
2019-01-12T13:00:17.429Z,10.83
2019-01-12T13:02:45.986Z,7.63
2019-01-12T13:05:14.570Z,7.60
2019-01-12T13:07:43.059Z,7.80
2019-01-12T13:10:19.774Z,6.10
2019-01-12T13:12:48.372Z,6.70
2019-01-12T13:15:17.061Z,7.00
2019-01-12T13:17:45.549Z,7.30
2019-01-12T13:20:16.690Z,7.50
2019-01-12T13:22:45.487Z,9.53
2019-01-12T13:25:14.793Z,7.40
2019-01-12T13:27:43.303Z,7.03
2019-01-12T13:30:17.348Z,6.07
2019-01-12T13:32:45.869Z,8.93
2019-01-12T13:35:14.423Z,7.40
2019-01-12T13:37:42.938Z,8.50
2019-01-12T13:40:14.359Z,6.53
2019-01-12T13:42:42.817Z,8.03
2019-01-12T13:45:14.217Z,8.17
2019-01-12T13:47:42.702Z,7.23
2019-01-12T13:50:13.766Z,12.30
2019-01-12T13:52:42.288Z,13.03
2019-01-12T13:55:12.841Z,10.20
2019-01-12T13:57:47.365Z,7.83
2019-01-12T14:00:23.877Z,7.70
2019-01-12T14:02:52.462Z,7.00
2019-01-12T14:05:20.954Z,11.40
2019-01-12T14:07:55.844Z,8.53
2019-01-12T14:10:20.198Z,7.50
2019-01-12T14:12:48.713Z,6.93
2019-01-12T14:15:18.964Z,7.93
2019-01-12T14:17:48.332Z,6.77
2019-01-12T14:20:25.347Z,5.60
2019-01-12T14:22:53.861Z,5.23
2019-01-12T14:25:22.346Z,7.57
2019-01-12T14:27:54.847Z,7.63
2019-01-12T14:30:21.354Z,7.80
2019-01-12T14:32:49.966Z,6.50
2019-01-12T14:35:19.311Z,6.57
2019-01-12T14:37:48.094Z,5.23
2019-01-12T14:40:20.888Z,5.07
2019-01-12T14:42:49.401Z,4.73
2019-01-12T14:45:20.439Z,5.50
2019-01-12T14:47:48.878Z,6.33
2019-01-12T14:50:17.371Z,6.80
2019-01-12T14:52:45.952Z,6.17
2019-01-12T14:55:17.008Z,4.83
2019-01-12T14:57:45.524Z,10.33
2019-01-12T15:00:16.612Z,5.57
2019-01-12T15:02:45.130Z,6.63
2019-01-12T15:05:18.309Z,5.17
2019-01-12T15:07:47.012Z,7.30
2019-01-12T15:10:17.556Z,3.07
2019-01-12T15:12:46.244Z,4.30
2019-01-12T15:15:16.811Z,5.50
2019-01-12T15:17:45.391Z,4.00
2019-01-12T15:20:18.858Z,5.40
2019-01-12T15:22:47.461Z,4.50
2019-01-12T15:25:16.056Z,3.97
2019-01-12T15:27:44.566Z,4.83
2019-01-12T15:30:21.112Z,11.03
2019-01-12T15:32:49.566Z,17.70
2019-01-12T15:35:18.826Z,11.73
2019-01-12T15:37:47.347Z,17.60
2019-01-12T15:40:20.501Z,5.03
2019-01-12T15:42:49.018Z,5.57
2019-01-12T15:45:20.342Z,3.20
2019-01-12T15:47:48.828Z,4.50
2019-01-12T15:50:19.313Z,3.33
2019-01-12T15:52:47.795Z,3.03
2019-01-12T15:55:16.384Z,2.60
2019-01-12T15:57:44.814Z,3.23
2019-01-12T16:00:16.466Z,4.60
2019-01-12T16:02:44.886Z,2.87
2019-01-12T16:05:13.070Z,6.70
2019-01-12T16:07:41.488Z,5.20
2019-01-12T16:10:11.769Z,3.50
2019-01-12T16:12:40.181Z,7.33
2019-01-12T16:15:20.815Z,5.50
2019-01-12T16:17:49.234Z,7.87
2019-01-12T16:20:26.210Z,2.67
2019-01-12T16:22:54.622Z,8.33
2019-01-12T16:25:23.134Z,5.00
2019-01-12T16:27:51.551Z,6.53
2019-01-12T16:30:21.034Z,3.80
2019-01-12T16:32:49.454Z,5.63
2019-01-12T16:35:18.435Z,6.57
2019-01-12T16:37:46.932Z,4.47
2019-01-12T16:40:18.117Z,9.40
2019-01-12T16:42:46.605Z,6.10
2019-01-12T16:45:15.179Z,5.60
2019-01-12T16:47:43.662Z,5.17
2019-01-12T16:50:12.111Z,10.50
2019-01-12T16:52:40.606Z,7.50
2019-01-12T16:55:11.691Z,7.40
2019-01-12T16:57:40.187Z,10.80
2019-01-12T17:00:18.208Z,11.73
2019-01-12T17:02:46.707Z,12.03
2019-01-12T17:05:15.216Z,9.37
2019-01-12T17:07:43.777Z,9.23
2019-01-12T17:10:20.008Z,6.87
2019-01-12T17:12:48.489Z,6.40
2019-01-12T17:15:18.970Z,20.70
2019-01-12T17:17:47.454Z,3.60
2019-01-12T17:20:21.286Z,5.07
2019-01-12T17:22:50.647Z,5.30
2019-01-12T17:25:26.751Z,6.10
2019-01-12T17:27:55.382Z,9.50
2019-01-12T17:30:25.478Z,6.57
2019-01-12T17:32:53.898Z,5.90
2019-01-12T17:35:23.656Z,5.00
2019-01-12T17:37:52.143Z,6.77
2019-01-12T17:40:20.592Z,13.30
2019-01-12T17:42:49.014Z,9.37
2019-01-12T17:45:22.526Z,4.30
2019-01-12T17:47:51.020Z,9.33
2019-01-12T17:50:21.401Z,7.77
2019-01-12T17:52:49.831Z,7.80
2019-01-12T17:55:20.113Z,8.10
2019-01-12T17:57:48.610Z,11.67
2019-01-12T18:00:38.784Z,13.33
2019-01-12T18:03:08.638Z,8.20
2019-01-12T18:05:37.160Z,12.87
2019-01-12T18:08:05.740Z,5.17
2019-01-12T18:10:34.190Z,7.67
2019-01-12T18:13:02.617Z,10.23
2019-01-12T18:15:31.076Z,10.80
2019-01-12T18:17:59.570Z,8.10
2019-01-12T18:20:28.008Z,13.27
2019-01-12T18:22:56.497Z,7.77
2019-01-12T18:25:24.939Z,6.37
2019-01-12T18:27:53.363Z,7.60
2019-01-12T18:30:24.620Z,7.63
2019-01-12T18:32:53.053Z,7.60
2019-01-12T18:35:21.560Z,3.93
2019-01-12T18:37:50.044Z,5.83
2019-01-12T18:40:20.132Z,7.40
2019-01-12T18:42:48.613Z,8.77
2019-01-12T18:45:19.452Z,7.63
2019-01-12T18:47:47.897Z,8.27
2019-01-12T18:50:19.123Z,4.43
2019-01-12T18:52:47.638Z,3.80
2019-01-12T18:55:16.187Z,8.97
2019-01-12T18:57:44.703Z,12.23
2019-01-12T19:00:27.906Z,9.10
2019-01-12T19:02:56.467Z,4.67
2019-01-12T19:05:25.266Z,8.03
2019-01-12T19:07:53.863Z,2.60
2019-01-12T19:10:22.422Z,6.37
2019-01-12T19:12:50.932Z,7.83
2019-01-12T19:15:24.927Z,3.93
2019-01-12T19:17:53.374Z,3.33
2019-01-12T19:20:21.867Z,5.47
2019-01-12T19:22:50.387Z,4.27
2019-01-12T19:25:18.806Z,3.13
2019-01-12T19:27:47.247Z,3.57
2019-01-12T19:30:20.386Z,5.80
2019-01-12T19:32:48.909Z,3.07
2019-01-12T19:35:17.471Z,6.10
2019-01-12T19:37:46.061Z,5.17
2019-01-12T19:40:16.617Z,5.50
2019-01-12T19:42:45.135Z,3.07
2019-01-12T19:45:15.297Z,4.23
2019-01-12T19:47:43.893Z,6.70
2019-01-12T19:50:21.071Z,6.63
2019-01-12T19:52:49.576Z,8.83
2019-01-12T19:55:18.058Z,4.90
2019-01-12T19:57:46.577Z,5.90
2019-01-12T20:00:20.550Z,8.50
2019-01-12T20:02:49.135Z,5.20
2019-01-12T20:05:17.622Z,6.40
2019-01-12T20:07:46.069Z,11.83
2019-01-12T20:10:16.232Z,10.33
2019-01-12T20:12:44.679Z,5.20
2019-01-12T20:15:15.913Z,14.07
2019-01-12T20:17:44.425Z,5.90
2019-01-12T20:20:14.802Z,7.77
2019-01-12T20:22:43.393Z,8.00
2019-01-12T20:25:14.821Z,3.13
2019-01-12T20:27:43.272Z,11.00
2019-01-12T20:30:20.712Z,4.93
2019-01-12T20:33:12.097Z,13.20
2019-01-12T20:35:49.116Z,4.63
2019-01-12T20:38:26.492Z,4.40
2019-01-12T20:41:06.797Z,7.53
2019-01-12T20:43:41.081Z,10.50
2019-01-12T20:46:21.310Z,11.20
2019-01-12T20:48:55.524Z,9.10
2019-01-12T20:51:35.762Z,9.40
2019-01-12T20:54:19.437Z,4.73
2019-01-12T20:57:06.069Z,5.87
2019-01-12T21:00:00.521Z,7.50
2019-01-12T21:02:53.610Z,8.10
2019-01-12T21:05:34.398Z,7.47
2019-01-12T21:08:07.367Z,9.43
2019-01-12T21:10:39.087Z,7.40
2019-01-12T21:13:30.462Z,6.30
2019-01-12T21:16:02.298Z,10.37
2019-01-12T21:18:30.739Z,5.03
2019-01-12T21:20:59.152Z,9.87
2019-01-12T21:23:27.673Z,8.10
2019-01-12T21:25:56.102Z,21.00
2019-01-12T21:28:24.546Z,5.47
2019-01-12T21:30:52.965Z,5.07
2019-01-12T21:33:21.508Z,9.93
2019-01-12T21:35:49.915Z,6.20
2019-01-12T21:38:18.328Z,9.27
2019-01-12T21:40:46.774Z,5.23
2019-01-12T21:43:15.205Z,2.30
2019-01-12T21:45:43.716Z,4.60
2019-01-12T21:48:12.123Z,7.20
2019-01-12T21:50:40.569Z,4.40
2019-01-12T21:53:08.987Z,5.80
2019-01-12T21:55:37.434Z,13.83
2019-01-12T21:58:05.920Z,8.70
2019-01-12T22:00:34.366Z,9.80
2019-01-12T22:03:02.789Z,11.43
2019-01-12T22:05:31.248Z,3.07
2019-01-12T22:07:59.658Z,2.73
2019-01-12T22:10:28.109Z,2.60
2019-01-12T22:12:56.525Z,5.33
2019-01-12T22:15:24.978Z,4.47
2019-01-12T22:17:53.395Z,3.47
2019-01-12T22:20:21.842Z,4.50
2019-01-12T22:22:50.279Z,1.93
2019-01-12T22:25:18.725Z,3.57
2019-01-12T22:27:47.155Z,3.30
2019-01-12T22:30:17.714Z,3.20
2019-01-12T22:32:46.628Z,2.63
2019-01-12T22:35:15.220Z,1.90
2019-01-12T22:37:43.747Z,3.00
2019-01-12T22:40:20.053Z,2.13
2019-01-12T22:42:48.480Z,2.27
2019-01-12T22:45:17.040Z,1.77
2019-01-12T22:47:45.553Z,2.20
2019-01-12T22:50:15.820Z,1.10
2019-01-12T22:52:44.418Z,2.53
2019-01-12T22:55:13.889Z,2.13
2019-01-12T22:57:42.338Z,1.20
2019-01-12T23:00:35.310Z,4.33
2019-01-12T23:03:03.831Z,1.20
2019-01-12T23:05:32.270Z,3.73
2019-01-12T23:08:00.726Z,5.90
2019-01-12T23:10:29.229Z,3.47
2019-01-12T23:12:57.828Z,4.70
2019-01-12T23:15:26.339Z,2.87
2019-01-12T23:17:54.850Z,3.33
2019-01-12T23:20:23.360Z,2.33
2019-01-12T23:22:51.828Z,7.60
2019-01-12T23:25:20.338Z,5.87
2019-01-12T23:27:48.809Z,1.73
2019-01-12T23:30:17.469Z,0.73
2019-01-12T23:32:46.002Z,1.83
2019-01-12T23:35:14.573Z,3.17
2019-01-12T23:37:43.028Z,4.40
2019-01-12T23:40:14.297Z,1.47
2019-01-12T23:42:42.893Z,2.23
2019-01-12T23:45:15.086Z,1.73
2019-01-12T23:47:43.612Z,2.10
2019-01-12T23:50:13.913Z,1.50
2019-01-12T23:52:42.579Z,2.07
2019-01-12T23:55:11.335Z,0.97
2019-01-12T23:57:39.870Z,2.13
